createdAt,value
2018-06-09T00:00:25.038Z,23.70
2018-06-09T00:05:28.884Z,28.80
2018-06-09T00:10:32.986Z,27.87
2018-06-09T00:15:37.022Z,29.50
2018-06-09T00:20:40.991Z,29.60
2018-06-09T00:25:49.059Z,30.37
2018-06-09T00:30:53.019Z,25.17
2018-06-09T00:35:57.036Z,25.83
2018-06-09T00:41:01.084Z,19.80
2018-06-09T00:46:05.051Z,19.47
2018-06-09T00:51:08.771Z,21.73
2018-06-09T00:56:24.097Z,20.83
2018-06-09T01:01:28.071Z,22.23
2018-06-09T01:06:31.823Z,20.13
2018-06-09T01:11:35.851Z,24.37
2018-06-09T01:16:39.818Z,23.07
2018-06-09T01:21:43.803Z,32.37
2018-06-09T01:26:47.743Z,30.73
2018-06-09T01:31:51.696Z,27.97
2018-06-09T01:36:55.679Z,28.47
2018-06-09T01:41:59.660Z,29.17
2018-06-09T01:47:03.636Z,28.97
2018-06-09T01:52:07.656Z,35.00
2018-06-09T01:57:11.644Z,26.33
2018-06-09T02:02:15.377Z,24.10
2018-06-09T02:07:19.260Z,21.57
2018-06-09T02:12:23.685Z,21.30
2018-06-09T02:17:27.665Z,18.67
2018-06-09T02:22:32.366Z,18.07
2018-06-09T02:27:36.317Z,17.23
2018-06-09T02:32:40.323Z,15.33
2018-06-09T02:37:44.291Z,16.30
2018-06-09T02:42:48.217Z,15.80
2018-06-09T02:47:52.179Z,15.33
2018-06-09T02:52:56.160Z,15.73
2018-06-09T02:58:00.136Z,13.87
2018-06-09T03:03:04.116Z,14.30
2018-06-09T03:08:08.145Z,13.67
2018-06-09T03:13:12.188Z,16.30
2018-06-09T03:18:16.157Z,17.43
2018-06-09T03:23:20.146Z,17.90
2018-06-09T03:28:24.152Z,16.03
2018-06-09T03:33:28.137Z,17.47
2018-06-09T03:38:32.100Z,16.10
2018-06-09T03:43:36.058Z,15.50
2018-06-09T03:48:40.015Z,16.20
2018-06-09T03:53:43.786Z,19.77
2018-06-09T03:58:47.620Z,20.40
2018-06-09T04:03:51.591Z,13.70
2018-06-09T04:08:55.354Z,16.13
2018-06-09T04:13:59.207Z,14.80
2018-06-09T04:19:03.127Z,18.40
2018-06-09T04:24:07.123Z,16.40
2018-06-09T04:29:11.122Z,18.27
2018-06-09T04:34:15.140Z,18.67
2018-06-09T04:39:19.104Z,17.67
2018-06-09T04:44:23.099Z,17.50
2018-06-09T04:49:27.144Z,14.13
2018-06-09T04:54:31.931Z,21.97
2018-06-09T04:59:35.901Z,20.17
2018-06-09T05:04:39.879Z,13.60
2018-06-09T05:09:43.903Z,13.33
2018-06-09T05:14:47.911Z,13.67
2018-06-09T05:19:51.882Z,14.03
2018-06-09T05:24:55.859Z,11.97
2018-06-09T05:29:59.871Z,17.20
2018-06-09T05:35:03.851Z,13.30
2018-06-09T05:40:07.853Z,10.63
2018-06-09T05:45:11.855Z,12.23
2018-06-09T05:50:15.834Z,10.30
2018-06-09T05:55:19.575Z,22.67
2018-06-09T06:00:23.444Z,11.60
2018-06-09T06:05:27.458Z,16.90
2018-06-09T06:10:31.465Z,8.40
2018-06-09T06:15:35.516Z,8.20
2018-06-09T06:20:39.480Z,9.40
2018-06-09T06:25:43.456Z,10.97
2018-06-09T06:30:47.401Z,10.13
2018-06-09T06:35:51.369Z,9.60
2018-06-09T06:40:55.368Z,9.40
2018-06-09T06:45:59.326Z,8.40
2018-06-09T06:51:03.430Z,10.33
2018-06-09T06:56:07.462Z,12.30
2018-06-09T07:01:11.446Z,11.13
2018-06-09T07:06:15.427Z,10.00
2018-06-09T07:11:19.395Z,9.83
2018-06-09T07:16:23.458Z,7.27
2018-06-09T07:21:27.475Z,9.80
2018-06-09T07:26:31.465Z,10.80
2018-06-09T07:31:35.459Z,12.20
2018-06-09T07:36:39.424Z,14.50
2018-06-09T07:41:43.399Z,14.80
2018-06-09T07:46:47.364Z,12.07
2018-06-09T07:51:51.338Z,12.57
2018-06-09T07:56:55.331Z,16.80
2018-06-09T08:01:59.328Z,13.33
2018-06-09T08:07:03.296Z,18.43
2018-06-09T08:12:07.323Z,18.20
2018-06-09T08:17:11.368Z,16.93
2018-06-09T08:22:15.355Z,14.57
2018-06-09T08:27:19.346Z,19.20
2018-06-09T08:32:23.344Z,18.47
2018-06-09T08:37:27.363Z,19.50
2018-06-09T08:42:31.829Z,19.03
2018-06-09T08:47:35.745Z,17.27
2018-06-09T08:52:39.737Z,20.63
2018-06-09T08:57:43.722Z,17.87
2018-06-09T09:02:47.777Z,12.67
2018-06-09T09:07:51.522Z,16.00
2018-06-09T09:12:56.159Z,20.07
2018-06-09T09:18:01.179Z,17.63
2018-06-09T09:23:04.997Z,17.27
2018-06-09T09:28:08.900Z,16.00
2018-06-09T09:33:12.883Z,12.77
2018-06-09T09:38:16.879Z,14.57
2018-06-09T09:43:20.849Z,16.13
2018-06-09T09:48:24.832Z,16.07
2018-06-09T09:53:28.804Z,13.37
2018-06-09T09:58:32.820Z,14.53
2018-06-09T10:03:36.783Z,12.07
2018-06-09T10:08:40.787Z,28.03
2018-06-09T10:13:44.780Z,9.83
2018-06-09T10:18:48.812Z,12.47
2018-06-09T10:23:52.782Z,12.67
2018-06-09T10:28:56.766Z,14.80
2018-06-09T10:34:00.729Z,14.40
2018-06-09T10:39:07.010Z,15.03
2018-06-09T10:44:10.986Z,24.47
2018-06-09T10:49:14.975Z,13.10
2018-06-09T10:54:18.943Z,11.33
2018-06-09T10:59:22.972Z,13.33
2018-06-09T11:04:26.931Z,14.33
2018-06-09T11:09:30.976Z,18.37
2018-06-09T11:14:34.995Z,20.73
2018-06-09T11:19:39.114Z,14.80
2018-06-09T11:24:43.076Z,11.80
2018-06-09T11:29:47.072Z,13.70
2018-06-09T11:34:51.001Z,13.33
2018-06-09T11:39:54.992Z,9.30
2018-06-09T11:44:58.992Z,11.13
2018-06-09T11:50:02.960Z,14.17
2018-06-09T11:55:06.955Z,9.80
2018-06-09T12:00:11.023Z,8.73
2018-06-09T12:05:14.992Z,12.27
2018-06-09T12:10:18.959Z,9.23
2018-06-09T12:15:22.951Z,8.90
2018-06-09T12:20:27.115Z,9.07
2018-06-09T12:25:31.087Z,11.43
2018-06-09T12:30:35.042Z,13.67
2018-06-09T12:35:39.062Z,15.87
2018-06-09T12:40:43.047Z,10.63
2018-06-09T12:45:46.807Z,10.50
2018-06-09T12:50:50.664Z,19.73
2018-06-09T12:55:54.674Z,12.33
2018-06-09T13:00:58.676Z,11.77
2018-06-09T13:06:02.634Z,12.53
2018-06-09T13:11:06.615Z,8.73
2018-06-09T13:16:10.627Z,21.17
2018-06-09T13:21:14.614Z,14.73
2018-06-09T13:26:18.601Z,6.43
2018-06-09T13:31:22.590Z,15.33
2018-06-09T13:36:26.559Z,8.70
2018-06-09T13:41:30.544Z,12.67
2018-06-09T13:46:34.479Z,13.70
2018-06-09T13:51:38.443Z,12.53
2018-06-09T13:56:42.425Z,16.03
2018-06-09T14:01:46.394Z,13.10
2018-06-09T14:06:50.372Z,8.00
2018-06-09T14:11:54.319Z,10.30
2018-06-09T14:16:58.290Z,14.43
2018-06-09T14:22:02.282Z,16.70
2018-06-09T14:27:06.247Z,13.73
2018-06-09T14:32:10.240Z,15.53
2018-06-09T14:37:14.222Z,13.77
2018-06-09T14:42:18.185Z,13.67
2018-06-09T14:47:22.215Z,14.60
2018-06-09T14:52:26.176Z,13.77
2018-06-09T14:57:30.200Z,14.70
2018-06-09T15:02:34.245Z,17.77
2018-06-09T15:07:38.183Z,18.67
2018-06-09T15:12:42.269Z,11.70
2018-06-09T15:17:46.242Z,12.23
2018-06-09T15:22:50.201Z,18.80
2018-06-09T15:27:54.187Z,13.27
2018-06-09T15:32:58.171Z,13.37
2018-06-09T15:38:02.157Z,16.53
2018-06-09T15:43:06.132Z,14.13
2018-06-09T15:48:10.115Z,19.80
2018-06-09T15:53:14.108Z,13.10
2018-06-09T15:58:18.115Z,18.07
2018-06-09T16:03:22.111Z,20.80
2018-06-09T16:09:50.599Z,12.80
2018-06-09T16:14:54.633Z,12.73
2018-06-09T16:19:58.582Z,16.80
2018-06-09T16:25:02.586Z,11.50
2018-06-09T16:30:06.575Z,12.40
2018-06-09T16:35:10.562Z,15.17
2018-06-09T16:40:14.511Z,9.90
2018-06-09T16:45:49.375Z,11.43
2018-06-09T16:50:53.366Z,10.67
2018-06-09T16:55:57.339Z,11.37
2018-06-09T17:01:01.401Z,10.90
2018-06-09T17:06:05.348Z,12.37
2018-06-09T17:11:09.367Z,12.07
2018-06-09T17:16:13.384Z,10.83
2018-06-09T17:21:17.310Z,11.80
2018-06-09T17:26:21.281Z,9.60
2018-06-09T17:31:25.292Z,11.93
2018-06-09T17:36:29.287Z,11.33
2018-06-09T17:41:33.251Z,11.07
2018-06-09T17:46:37.223Z,13.30
2018-06-09T17:51:41.218Z,11.20
2018-06-09T17:56:46.004Z,10.30
2018-06-09T18:01:49.955Z,12.57
2018-06-09T18:06:54.031Z,13.43
2018-06-09T18:11:58.931Z,11.53
2018-06-09T18:17:03.988Z,11.03
2018-06-09T18:22:08.968Z,9.13
2018-06-09T18:27:13.044Z,12.43
2018-06-09T18:32:17.024Z,9.70
2018-06-09T18:37:21.019Z,10.13
2018-06-09T18:42:25.144Z,9.80
2018-06-09T18:47:28.873Z,11.73
2018-06-09T18:52:32.717Z,13.50
2018-06-09T18:57:36.733Z,9.60
2018-06-09T19:02:40.728Z,14.33
2018-06-09T19:07:44.759Z,11.93
2018-06-09T19:12:48.759Z,12.77
2018-06-09T19:17:52.787Z,15.43
2018-06-09T19:22:56.510Z,14.83
2018-06-09T19:28:00.751Z,11.10
2018-06-09T19:33:04.711Z,11.67
2018-06-09T19:38:08.699Z,10.17
2018-06-09T19:43:14.242Z,10.53
2018-06-09T19:48:18.242Z,11.60
2018-06-09T19:53:22.248Z,10.10
2018-06-09T19:58:26.221Z,11.27
2018-06-09T20:03:29.966Z,9.73
2018-06-09T20:08:33.831Z,9.77
2018-06-09T20:13:37.843Z,9.67
2018-06-09T20:18:41.826Z,9.50
2018-06-09T20:23:45.850Z,11.90
2018-06-09T20:28:50.665Z,15.43
2018-06-09T20:33:54.660Z,11.83
2018-06-09T20:38:58.666Z,10.53
2018-06-09T20:44:02.762Z,11.37
2018-06-09T20:49:06.862Z,11.53
2018-06-09T20:54:10.863Z,13.13
2018-06-09T20:59:15.749Z,14.70
2018-06-09T21:04:19.527Z,12.87
2018-06-09T21:09:23.416Z,11.13
2018-06-09T21:14:27.405Z,13.33
2018-06-09T21:19:31.392Z,14.03
2018-06-09T21:24:35.848Z,11.80
2018-06-09T21:29:49.013Z,10.83
2018-06-09T21:35:06.130Z,11.80
2018-06-09T21:40:21.335Z,9.73
2018-06-09T21:45:58.028Z,10.43
2018-06-09T21:51:02.086Z,13.80
2018-06-09T21:56:06.055Z,9.53
2018-06-09T22:01:10.932Z,9.63
2018-06-09T22:06:14.906Z,10.73
2018-06-09T22:11:18.924Z,8.97
2018-06-09T22:16:23.558Z,10.93
2018-06-09T22:21:27.542Z,8.93
2018-06-09T22:26:31.512Z,12.33
2018-06-09T22:31:36.880Z,10.43
2018-06-09T22:36:41.378Z,10.93
2018-06-09T22:41:45.259Z,10.60
2018-06-09T22:46:49.215Z,10.07
2018-06-09T22:51:53.147Z,9.10
2018-06-09T22:56:57.099Z,9.50
2018-06-09T23:02:01.153Z,9.93
2018-06-09T23:07:05.116Z,7.03
2018-06-09T23:12:09.099Z,8.93
2018-06-09T23:17:13.093Z,9.83
2018-06-09T23:22:17.131Z,10.30
2018-06-09T23:27:21.062Z,8.83
2018-06-09T23:32:25.212Z,8.47
2018-06-09T23:37:29.161Z,6.67
2018-06-09T23:42:33.099Z,7.93
2018-06-09T23:47:37.095Z,11.90
2018-06-09T23:52:40.823Z,10.20
2018-06-09T23:57:44.709Z,7.90
